sensor_id;sensor_type;location;lat;lon;timestamp;temperature;humidity
61351;DHT22;47119;49.130;9.218;2024-03-25T09:33:10;18.68;63.19
61351;DHT22;47119;49.130;9.218;2024-03-25T09:35:47;18.65;59.48
61351;DHT22;47119;49.130;9.218;2024-03-25T09:38:48;18.66;63.72
61351;DHT22;47119;49.130;9.218;2024-03-25T09:41:22;18.29;60.74
61351;DHT22;47119;49.130;9.218;2024-03-25T09:43:53;18.32;64.07
61351;DHT22;47119;49.130;9.218;2024-03-25T09:46:29;18.48;66.95
61351;DHT22;47119;49.130;9.218;2024-03-25T09:48:57;18.45;65.29
61351;DHT22;47119;49.130;9.218;2024-03-25T09:51:24;18.11;59.22
61351;DHT22;47119;49.130;9.218;2024-03-25T09:53:54;18.53;64.02
61351;DHT22;47119;49.130;9.218;2024-03-25T10:37:13;17.43;53.19
61351;DHT22;47119;49.130;9.218;2024-03-25T10:39:48;17.29;53.08
61351;DHT22;47119;49.130;9.218;2024-03-25T10:42:18;17.20;53.48
61351;DHT22;47119;49.130;9.218;2024-03-25T10:44:49;17.15;52.91
61351;DHT22;47119;49.130;9.218;2024-03-25T10:47:20;17.11;52.42
61351;DHT22;47119;49.130;9.218;2024-03-25T10:49:56;17.04;52.77
61351;DHT22;47119;49.130;9.218;2024-03-25T10:52:27;16.95;52.02
61351;DHT22;47119;49.130;9.218;2024-03-25T10:54:55;16.88;52.24
61351;DHT22;47119;49.130;9.218;2024-03-25T10:57:24;16.84;53.02
61351;DHT22;47119;49.130;9.218;2024-03-25T10:59:55;16.81;52.13
61351;DHT22;47119;49.130;9.218;2024-03-25T11:02:24;16.82;51.92
61351;DHT22;47119;49.130;9.218;2024-03-25T11:04:53;16.82;53.10
61351;DHT22;47119;49.130;9.218;2024-03-25T11:07:29;16.81;52.78
61351;DHT22;47119;49.130;9.218;2024-03-25T11:10:03;16.80;52.55
61351;DHT22;47119;49.130;9.218;2024-03-25T11:12:35;16.74;52.45
61351;DHT22;47119;49.130;9.218;2024-03-25T11:15:04;16.74;52.18
61351;DHT22;47119;49.130;9.218;2024-03-25T11:17:50;17.16;47.15
61351;DHT22;47119;49.130;9.218;2024-03-25T11:20:24;17.80;49.71
61351;DHT22;47119;49.130;9.218;2024-03-25T11:22:53;18.34;48.55
61351;DHT22;47119;49.130;9.218;2024-03-25T11:25:22;18.48;47.91
61351;DHT22;47119;49.130;9.218;2024-03-25T11:27:48;18.34;48.98
61351;DHT22;47119;49.130;9.218;2024-03-25T11:34:15;18.85;49.67
61351;DHT22;47119;49.130;9.218;2024-03-25T11:36:50;18.77;50.93
61351;DHT22;47119;49.130;9.218;2024-03-25T11:42:51;17.76;49.05
61351;DHT22;47119;49.130;9.218;2024-03-25T11:45:23;17.62;46.57
61351;DHT22;47119;49.130;9.218;2024-03-25T11:47:50;17.25;47.34
61351;DHT22;47119;49.130;9.218;2024-03-25T11:50:17;17.46;45.68
61351;DHT22;47119;49.130;9.218;2024-03-25T11:52:49;18.04;45.08
61351;DHT22;47119;49.130;9.218;2024-03-25T11:55:22;18.53;45.25
61351;DHT22;47119;49.130;9.218;2024-03-25T11:57:55;18.77;51.44
61351;DHT22;47119;49.130;9.218;2024-03-25T12:00:21;19.07;52.15
61351;DHT22;47119;49.130;9.218;2024-03-25T12:02:50;19.20;47.58
61351;DHT22;47119;49.130;9.218;2024-03-25T12:05:17;19.28;48.56
61351;DHT22;47119;49.130;9.218;2024-03-25T12:34:56;18.65;53.90
61351;DHT22;47119;49.130;9.218;2024-03-25T12:37:37;18.39;54.78
61351;DHT22;47119;49.130;9.218;2024-03-25T12:40:07;18.73;58.91
61351;DHT22;47119;49.130;9.218;2024-03-25T12:42:38;18.53;53.09
61351;DHT22;47119;49.130;9.218;2024-03-25T12:45:07;18.65;57.60
61351;DHT22;47119;49.130;9.218;2024-03-25T12:47:33;18.32;54.23
61351;DHT22;47119;49.130;9.218;2024-03-25T12:50:04;18.14;55.26
61351;DHT22;47119;49.130;9.218;2024-03-25T12:52:33;18.17;58.81
61351;DHT22;47119;49.130;9.218;2024-03-25T12:54:59;18.12;54.58
61351;DHT22;47119;49.130;9.218;2024-03-25T12:57:27;18.24;53.71
61351;DHT22;47119;49.130;9.218;2024-03-25T12:59:56;18.31;52.24
61351;DHT22;47119;49.130;9.218;2024-03-25T13:02:25;18.55;53.58
61351;DHT22;47119;49.130;9.218;2024-03-25T13:04:53;18.56;52.01
61351;DHT22;47119;49.130;9.218;2024-03-25T13:07:21;18.89;54.58
61351;DHT22;47119;49.130;9.218;2024-03-25T13:09:49;18.80;52.42
61351;DHT22;47119;49.130;9.218;2024-03-25T13:12:19;18.92;52.68
61351;DHT22;47119;49.130;9.218;2024-03-25T13:14:45;18.70;52.67
61351;DHT22;47119;49.130;9.218;2024-03-25T13:17:11;18.53;52.83
61351;DHT22;47119;49.130;9.218;2024-03-25T13:19:37;18.79;53.74
61351;DHT22;47119;49.130;9.218;2024-03-25T13:22:05;19.06;57.53
61351;DHT22;47119;49.130;9.218;2024-03-25T13:24:35;18.97;51.75
61351;DHT22;47119;49.130;9.218;2024-03-25T13:27:03;18.97;51.77
61351;DHT22;47119;49.130;9.218;2024-03-25T13:29:29;19.03;50.22
61351;DHT22;47119;49.130;9.218;2024-03-25T13:32:00;18.85;52.32
61351;DHT22;47119;49.130;9.218;2024-03-25T13:34:26;18.79;50.68
61351;DHT22;47119;49.130;9.218;2024-03-25T13:36:55;18.79;50.93
61351;DHT22;47119;49.130;9.218;2024-03-25T13:39:21;19.20;57.36
61351;DHT22;47119;49.130;9.218;2024-03-25T13:41:49;19.07;53.95
61351;DHT22;47119;49.130;9.218;2024-03-25T13:44:19;19.06;55.19
61351;DHT22;47119;49.130;9.218;2024-03-25T13:46:45;19.30;54.60
61351;DHT22;47119;49.130;9.218;2024-03-25T13:49:14;19.23;56.62
61351;DHT22;47119;49.130;9.218;2024-03-25T13:51:40;18.99;50.71
61351;DHT22;47119;49.130;9.218;2024-03-25T13:54:08;19.18;57.86
61351;DHT22;47119;49.130;9.218;2024-03-25T13:56:34;19.02;51.22
61351;DHT22;47119;49.130;9.218;2024-03-25T13:59:02;18.93;52.08
61351;DHT22;47119;49.130;9.218;2024-03-25T14:01:28;19.26;59.30
61351;DHT22;47119;49.130;9.218;2024-03-25T14:03:58;19.34;55.00
61351;DHT22;47119;49.130;9.218;2024-03-25T14:06:26;19.64;56.16
61351;DHT22;47119;49.130;9.218;2024-03-25T14:08:55;19.32;53.70
61351;DHT22;47119;49.130;9.218;2024-03-25T14:11:21;19.13;53.22
61351;DHT22;47119;49.130;9.218;2024-03-25T14:13:49;19.44;53.99
61351;DHT22;47119;49.130;9.218;2024-03-25T14:16:16;19.48;59.89
61351;DHT22;47119;49.130;9.218;2024-03-25T18:02:55;19.98;54.93
61351;DHT22;47119;49.130;9.218;2024-03-25T18:05:23;19.99;53.32
61351;DHT22;47119;49.130;9.218;2024-03-25T18:07:49;19.98;55.26
61351;DHT22;47119;49.130;9.218;2024-03-25T18:10:17;19.89;55.63
61351;DHT22;47119;49.130;9.218;2024-03-25T18:12:48;19.88;58.36
61351;DHT22;47119;49.130;9.218;2024-03-25T18:15:15;19.89;57.81
61351;DHT22;47119;49.130;9.218;2024-03-25T18:17:43;19.95;58.39
61351;DHT22;47119;49.130;9.218;2024-03-25T18:20:11;19.82;58.08
61351;DHT22;47119;49.130;9.218;2024-03-25T18:22:42;19.85;58.58
61351;DHT22;47119;49.130;9.218;2024-03-25T18:25:08;19.74;55.53
61351;DHT22;47119;49.130;9.218;2024-03-25T18:27:34;19.61;57.16
61351;DHT22;47119;49.130;9.218;2024-03-25T18:30:06;19.58;58.62
61351;DHT22;47119;49.130;9.218;2024-03-25T18:32:32;19.55;56.86
61351;DHT22;47119;49.130;9.218;2024-03-25T18:34:58;19.55;58.00
61351;DHT22;47119;49.130;9.218;2024-03-25T18:37:28;19.43;57.59
61351;DHT22;47119;49.130;9.218;2024-03-25T18:39:56;19.51;58.94
61351;DHT22;47119;49.130;9.218;2024-03-25T18:42:22;19.46;56.90
61351;DHT22;47119;49.130;9.218;2024-03-25T18:44:50;19.48;57.22
61351;DHT22;47119;49.130;9.218;2024-03-25T18:47:21;19.53;58.89
61351;DHT22;47119;49.130;9.218;2024-03-25T18:49:47;19.53;57.72
61351;DHT22;47119;49.130;9.218;2024-03-25T18:52:18;19.50;53.87
61351;DHT22;47119;49.130;9.218;2024-03-25T18:54:45;19.51;55.26
61351;DHT22;47119;49.130;9.218;2024-03-25T18:57:14;19.59;57.98
61351;DHT22;47119;49.130;9.218;2024-03-25T18:59:44;19.75;57.05
61351;DHT22;47119;49.130;9.218;2024-03-25T19:02:13;19.81;57.02
61351;DHT22;47119;49.130;9.218;2024-03-25T19:04:42;19.82;56.32
61351;DHT22;47119;49.130;9.218;2024-03-25T19:07:11;19.89;57.20
61351;DHT22;47119;49.130;9.218;2024-03-25T19:09:39;19.96;55.90
61351;DHT22;47119;49.130;9.218;2024-03-25T19:12:09;19.99;57.31
61351;DHT22;47119;49.130;9.218;2024-03-25T19:14:40;19.81;53.40
61351;DHT22;47119;49.130;9.218;2024-03-25T19:17:07;19.74;56.85
61351;DHT22;47119;49.130;9.218;2024-03-25T19:19:33;19.77;57.12
61351;DHT22;47119;49.130;9.218;2024-03-25T19:22:01;19.74;56.35
61351;DHT22;47119;49.130;9.218;2024-03-25T19:24:27;19.58;53.39
61351;DHT22;47119;49.130;9.218;2024-03-25T19:26:54;19.46;54.28
61351;DHT22;47119;49.130;9.218;2024-03-25T19:29:21;19.58;57.28
61351;DHT22;47119;49.130;9.218;2024-03-25T19:31:50;19.53;56.74
61351;DHT22;47119;49.130;9.218;2024-03-25T19:34:18;19.50;57.00
61351;DHT22;47119;49.130;9.218;2024-03-25T19:36:47;19.55;57.61
61351;DHT22;47119;49.130;9.218;2024-03-25T19:39:15;19.44;56.55
61351;DHT22;47119;49.130;9.218;2024-03-25T19:41:44;19.46;57.56
61351;DHT22;47119;49.130;9.218;2024-03-25T19:44:10;19.34;58.05
61351;DHT22;47119;49.130;9.218;2024-03-25T19:46:39;19.28;57.13
61351;DHT22;47119;49.130;9.218;2024-03-25T19:49:07;19.34;56.45
61351;DHT22;47119;49.130;9.218;2024-03-25T21:29:00;19.50;55.97
61351;DHT22;47119;49.130;9.218;2024-03-25T21:31:26;19.58;52.42
61351;DHT22;47119;49.130;9.218;2024-03-25T21:33:52;19.65;53.14
61351;DHT22;47119;49.130;9.218;2024-03-25T21:36:20;19.72;52.20
61351;DHT22;47119;49.130;9.218;2024-03-25T21:38:49;19.83;53.93
61351;DHT22;47119;49.130;9.218;2024-03-25T21:41:17;19.90;51.46
61351;DHT22;47119;49.130;9.218;2024-03-25T21:43:46;19.65;54.36
61351;DHT22;47119;49.130;9.218;2024-03-25T21:46:14;19.85;53.97
61351;DHT22;47119;49.130;9.218;2024-03-25T21:48:45;19.90;51.60
61351;DHT22;47119;49.130;9.218;2024-03-25T21:51:13;19.75;51.31
61351;DHT22;47119;49.130;9.218;2024-03-25T21:53:39;19.75;52.12
61351;DHT22;47119;49.130;9.218;2024-03-25T21:56:06;19.58;52.71
61351;DHT22;47119;49.130;9.218;2024-03-25T21:58:32;19.64;53.11
61351;DHT22;47119;49.130;9.218;2024-03-25T22:01:00;19.50;52.06
61351;DHT22;47119;49.130;9.218;2024-03-25T22:03:30;19.58;56.21
61351;DHT22;47119;49.130;9.218;2024-03-25T22:05:56;19.46;55.49
61351;DHT22;47119;49.130;9.218;2024-03-25T22:08:30;19.43;51.57
61351;DHT22;47119;49.130;9.218;2024-03-25T22:10:58;19.41;55.57
61351;DHT22;47119;49.130;9.218;2024-03-25T22:13:24;19.39;53.19
61351;DHT22;47119;49.130;9.218;2024-03-25T22:15:57;19.26;53.12
61351;DHT22;47119;49.130;9.218;2024-03-25T22:18:26;19.16;55.88
61351;DHT22;47119;49.130;9.218;2024-03-25T22:21:02;19.24;53.89
61351;DHT22;47119;49.130;9.218;2024-03-25T22:23:29;18.87;53.07
61351;DHT22;47119;49.130;9.218;2024-03-25T22:25:57;18.69;51.94
61351;DHT22;47119;49.130;9.218;2024-03-25T22:28:29;18.72;53.80
61351;DHT22;47119;49.130;9.218;2024-03-25T22:30:57;18.42;52.44
61351;DHT22;47119;49.130;9.218;2024-03-25T22:33:24;18.32;53.82
61351;DHT22;47119;49.130;9.218;2024-03-25T22:35:54;18.41;53.53
61351;DHT22;47119;49.130;9.218;2024-03-25T22:38:24;18.37;53.62
61351;DHT22;47119;49.130;9.218;2024-03-25T22:40:51;18.34;52.69
61351;DHT22;47119;49.130;9.218;2024-03-25T22:43:17;18.42;53.24
61351;DHT22;47119;49.130;9.218;2024-03-25T22:45:53;18.56;52.17
61351;DHT22;47119;49.130;9.218;2024-03-25T22:48:19;18.77;52.61
61351;DHT22;47119;49.130;9.218;2024-03-25T22:50:55;18.96;51.91
61351;DHT22;47119;49.130;9.218;2024-03-25T22:53:25;18.82;52.52
61351;DHT22;47119;49.130;9.218;2024-03-25T22:55:58;18.95;51.38
61351;DHT22;47119;49.130;9.218;2024-03-25T22:58:29;18.80;51.88
61351;DHT22;47119;49.130;9.218;2024-03-25T23:01:03;18.75;51.89
61351;DHT22;47119;49.130;9.218;2024-03-25T23:03:29;18.77;52.38
61351;DHT22;47119;49.130;9.218;2024-03-25T23:05:56;18.77;51.77
61351;DHT22;47119;49.130;9.218;2024-03-25T23:08:26;18.83;52.77
61351;DHT22;47119;49.130;9.218;2024-03-25T23:10:53;18.65;52.37
61351;DHT22;47119;49.130;9.218;2024-03-25T23:13:19;18.44;52.27
61351;DHT22;47119;49.130;9.218;2024-03-25T23:15:45;18.44;51.63
61351;DHT22;47119;49.130;9.218;2024-03-25T23:18:11;18.14;51.27
61351;DHT22;47119;49.130;9.218;2024-03-25T23:20:41;18.17;52.83
61351;DHT22;47119;49.130;9.218;2024-03-25T23:23:10;18.39;53.44
61351;DHT22;47119;49.130;9.218;2024-03-25T23:25:38;18.34;53.55
61351;DHT22;47119;49.130;9.218;2024-03-25T23:28:05;18.28;53.18
61351;DHT22;47119;49.130;9.218;2024-03-25T23:30:32;18.28;52.94
61351;DHT22;47119;49.130;9.218;2024-03-25T23:33:02;17.98;52.47
61351;DHT22;47119;49.130;9.218;2024-03-25T23:35:31;17.77;52.76
61351;DHT22;47119;49.130;9.218;2024-03-25T23:37:58;18.24;54.29
61351;DHT22;47119;49.130;9.218;2024-03-25T23:40:29;18.47;53.74
61351;DHT22;47119;49.130;9.218;2024-03-25T23:43:00;18.35;52.20
61351;DHT22;47119;49.130;9.218;2024-03-25T23:45:26;18.49;52.70
61351;DHT22;47119;49.130;9.218;2024-03-25T23:47:59;18.45;51.74
61351;DHT22;47119;49.130;9.218;2024-03-25T23:50:28;18.35;52.25
61351;DHT22;47119;49.130;9.218;2024-03-25T23:52:57;18.73;53.19
61351;DHT22;47119;49.130;9.218;2024-03-25T23:55:27;18.44;51.43
61351;DHT22;47119;49.130;9.218;2024-03-25T23:57:57;18.68;52.54
